Terminal Aerodrome Forecast
Issued by NWS Paducah, KY

Home | Current Version | Previous Version | Text Only | Print | Product List | Glossary On
Versions: 1 2 3 4 5 6 7 8 9 10 11 12 13 14 15 16 17 18 19 20 21 22 23 24 25 26 27 28 29 30
271
FTUS43 KPAH 151720
TAFPAH
TAF
KPAH 151720Z 1518/1618 22008KT 6SM -SHRA BKN035 OVC070
      TEMPO 1518/1519 5SM -SHRA BKN015 OVC030
     FM151900 24009KT P6SM OVC014
     FM152100 28007KT P6SM OVC025
     FM160100 32005KT P6SM SKC
     FM160900 36006KT P6SM BKN300=

USA.gov is the U.S. government's official web portal to all federal, state and local government web resources and services.